Time;durP1;ratioP1;P1;durP2;ratioP2;P2;SDS_P1;SDS_P2;PMS_P1;PMS_P2;Temp;Humidity;BMP_temperature;BMP_pressure;BME280_temperature;BME280_humidity;BME280_pressure;Samples;Min_cycle;Max_cycle;Signal;HPM_P1;HPM_P2
2022/10/02 00:02:06;;;;;;;11.03;4.27;;;11.10;1.00;;;;;;6277818;28;20244;-54
2022/10/02 00:05:16;;;;;;;8.97;4.10;;;11.10;1.00;;;;;;6286085;28;20239;-54
2022/10/02 00:08:25;;;;;;;4.10;3.77;;;11.10;1.00;;;;;;6312227;28;20460;-53
2022/10/02 00:11:35;;;;;;;5.23;4.23;;;11.10;1.00;;;;;;6279379;28;20233;-53
2022/10/02 00:14:41;;;;;;;6.90;4.43;;;11.20;1.00;;;;;;6262626;28;20230;-54
2022/10/02 00:17:47;;;;;;;5.23;3.93;;;11.30;1.00;;;;;;6262694;28;20234;-54
2022/10/02 00:20:59;;;;;;;8.03;4.17;;;11.30;1.00;;;;;;6270518;28;20261;-55
2022/10/02 00:24:06;;;;;;;6.33;3.70;;;11.30;1.00;;;;;;6275626;28;20238;-54
2022/10/02 00:27:22;;;;;;;8.87;4.20;;;11.30;1.00;;;;;;6262479;28;20314;-54
2022/10/02 00:30:26;;;;;;;9.40;3.83;;;11.30;1.00;;;;;;6255051;28;20725;-54
2022/10/02 00:33:38;;;;;;;8.67;4.17;;;11.30;1.00;;;;;;6265851;28;20238;-56
2022/10/02 00:36:51;;;;;;;5.97;4.03;;;11.20;1.00;;;;;;6289582;28;20926;-54
2022/10/02 00:40:03;;;;;;;8.03;4.50;;;11.20;1.00;;;;;;6286532;28;20233;-55
2022/10/02 00:43:21;;;;;;;6.80;4.20;;;11.30;1.00;;;;;;6282482;28;20242;-53
2022/10/02 00:46:41;;;;;;;8.50;3.80;;;11.30;1.00;;;;;;6261163;28;20243;-57
2022/10/02 00:50:05;;;;;;;9.07;3.90;;;11.30;1.00;;;;;;6269622;28;20237;-53
2022/10/02 00:53:19;;;;;;;9.83;4.47;;;11.30;1.00;;;;;;6269145;28;20231;-59
2022/10/02 00:56:29;;;;;;;6.87;3.47;;;11.50;1.00;;;;;;6260367;28;20245;-54
2022/10/02 00:59:50;;;;;;;8.97;4.13;;;11.20;1.00;;;;;;6271306;28;20617;-55
2022/10/02 01:03:03;;;;;;;9.47;3.70;;;11.20;1.00;;;;;;6280822;28;20222;-55
2022/10/02 01:06:08;;;;;;;5.73;3.57;;;11.20;1.00;;;;;;6282661;28;20253;-52
2022/10/02 01:09:12;;;;;;;6.20;3.63;;;11.20;1.00;;;;;;6276855;28;20602;-55
2022/10/02 01:12:15;;;;;;;8.47;4.03;;;11.20;1.00;;;;;;6272883;28;20241;-54
2022/10/02 01:15:21;;;;;;;8.53;4.20;;;11.20;1.00;;;;;;6284229;28;20361;-55
2022/10/02 01:18:24;;;;;;;8.50;3.37;;;11.20;1.00;;;;;;6284299;28;20588;-54
2022/10/02 01:21:34;;;;;;;8.57;4.07;;;11.20;1.00;;;;;;6280964;28;20338;-54
2022/10/02 01:24:47;;;;;;;8.10;4.10;;;11.20;1.00;;;;;;6261679;28;20234;-55
2022/10/02 01:27:52;;;;;;;7.43;3.90;;;11.10;1.00;;;;;;6259653;28;20687;-54
2022/10/02 01:31:01;;;;;;;8.53;4.10;;;11.10;1.00;;;;;;6259448;28;20298;-55
2022/10/02 01:34:04;;;;;;;5.57;3.83;;;11.10;1.00;;;;;;6282016;28;20610;-54
2022/10/02 01:37:08;;;;;;;12.17;4.40;;;11.00;1.00;;;;;;6305934;28;20275;-55
2022/10/02 01:40:23;;;;;;;9.77;4.33;;;11.00;1.00;;;;;;6308757;28;20254;-54
2022/10/02 01:43:30;;;;;;;11.27;3.90;;;11.00;1.00;;;;;;6282853;28;20495;-53
2022/10/02 01:46:38;;;;;;;5.53;4.00;;;11.00;1.00;;;;;;6282712;28;20251;-55
2022/10/02 01:49:56;;;;;;;12.50;4.27;;;11.00;1.00;;;;;;6282707;28;20237;-54
2022/10/02 01:53:05;;;;;;;6.50;4.20;;;11.00;1.00;;;;;;6280137;28;20249;-53
2022/10/02 01:56:17;;;;;;;12.50;4.23;;;10.90;1.00;;;;;;6283834;28;20233;-53
2022/10/02 01:59:30;;;;;;;8.33;4.17;;;10.90;1.00;;;;;;6283167;28;20233;-55
2022/10/02 02:02:44;;;;;;;11.43;4.70;;;10.90;1.00;;;;;;6266773;28;21221;-52
2022/10/02 02:05:53;;;;;;;10.47;3.83;;;10.90;1.00;;;;;;6294503;28;20681;-53
2022/10/02 02:09:06;;;;;;;13.50;4.53;;;10.80;1.00;;;;;;6285918;28;20230;-52
2022/10/02 02:12:15;;;;;;;6.90;4.33;;;10.80;1.00;;;;;;6258200;28;20234;-55
2022/10/02 02:15:25;;;;;;;5.63;3.80;;;10.80;1.00;;;;;;6258743;28;20237;-54
2022/10/02 02:18:32;;;;;;;14.63;4.53;;;10.80;1.00;;;;;;6256233;28;20244;-54
2022/10/02 02:21:40;;;;;;;12.77;4.63;;;10.80;1.00;;;;;;6276104;28;20248;-55
2022/10/02 02:24:47;;;;;;;7.23;4.03;;;10.80;1.00;;;;;;6276809;28;20617;-55
2022/10/02 02:28:02;;;;;;;14.10;4.63;;;10.80;1.00;;;;;;6258220;28;20249;-53
2022/10/02 02:31:08;;;;;;;9.03;4.50;;;10.80;1.00;;;;;;6278016;28;20362;-54
2022/10/02 02:34:17;;;;;;;15.30;4.90;;;10.80;1.00;;;;;;6274040;28;20237;-54
2022/10/02 02:37:23;;;;;;;8.00;4.10;;;10.70;1.00;;;;;;6278220;28;20718;-54
2022/10/02 02:40:30;;;;;;;18.50;5.20;;;10.70;1.00;;;;;;6266024;28;20395;-54
2022/10/02 02:43:41;;;;;;;10.47;4.43;;;10.80;1.00;;;;;;6283258;28;20710;-53
2022/10/02 02:47:03;;;;;;;10.67;4.60;;;10.80;1.00;;;;;;6283711;28;20260;-52
2022/10/02 02:50:12;;;;;;;9.77;4.77;;;10.70;1.00;;;;;;6284331;28;20622;-54
2022/10/02 02:53:18;;;;;;;10.03;4.13;;;10.70;1.00;;;;;;6268179;28;20748;-54
2022/10/02 02:56:21;;;;;;;12.63;4.43;;;10.70;1.00;;;;;;6265314;28;20738;-55
2022/10/02 02:59:30;;;;;;;10.13;4.53;;;10.70;1.00;;;;;;6250979;28;20392;-55
2022/10/02 03:02:33;;;;;;;13.37;4.63;;;10.70;1.00;;;;;;6253005;28;20248;-53
2022/10/02 03:05:39;;;;;;;10.60;5.30;;;10.60;1.00;;;;;;6275729;28;20229;-53
2022/10/02 03:08:42;;;;;;;9.93;4.67;;;10.70;1.00;;;;;;6282044;28;20244;-55
2022/10/02 03:11:53;;;;;;;7.43;5.00;;;10.60;1.00;;;;;;6282264;28;20522;-54
2022/10/02 03:15:10;;;;;;;9.07;5.37;;;10.60;1.00;;;;;;6284393;28;20237;-52
2022/10/02 03:18:26;;;;;;;12.13;4.80;;;10.60;1.00;;;;;;6281100;28;20821;-55
2022/10/02 03:21:35;;;;;;;12.20;5.00;;;10.60;1.00;;;;;;6288607;28;20241;-54
2022/10/02 03:24:45;;;;;;;12.53;4.60;;;10.60;1.00;;;;;;6281976;28;20244;-54
2022/10/02 03:27:53;;;;;;;10.33;4.57;;;10.60;1.00;;;;;;6287667;28;20229;-58
2022/10/02 03:30:59;;;;;;;11.03;4.77;;;10.50;1.00;;;;;;6288009;28;20229;-54
2022/10/02 03:34:06;;;;;;;11.73;5.00;;;10.50;1.00;;;;;;6269378;28;20299;-53
2022/10/02 03:37:09;;;;;;;14.27;4.67;;;10.50;1.00;;;;;;6292859;28;20233;-55
2022/10/02 03:40:12;;;;;;;11.67;4.50;;;10.50;1.00;;;;;;6291359;28;20240;-54
2022/10/02 03:43:21;;;;;;;10.97;4.57;;;10.50;1.00;;;;;;6287604;28;20359;-54
2022/10/02 03:46:25;;;;;;;13.43;4.87;;;10.50;1.00;;;;;;6293423;28;20408;-54
2022/10/02 03:49:28;;;;;;;10.53;4.50;;;10.50;1.00;;;;;;6289741;28;20236;-53
2022/10/02 03:52:32;;;;;;;7.43;4.53;;;10.50;1.00;;;;;;6290730;28;20348;-54
2022/10/02 03:55:39;;;;;;;9.23;4.73;;;10.40;1.00;;;;;;6286461;28;20245;-54
2022/10/02 03:58:48;;;;;;;8.93;4.70;;;10.40;1.00;;;;;;6280407;28;20230;-55
2022/10/02 04:01:55;;;;;;;10.70;4.90;;;10.40;1.00;;;;;;6288501;28;20236;-54
2022/10/02 04:05:03;;;;;;;11.23;4.60;;;10.50;1.00;;;;;;6287286;28;20347;-54
2022/10/02 04:08:12;;;;;;;5.33;4.43;;;10.50;1.00;;;;;;6288193;28;20256;-54
2022/10/02 04:11:23;;;;;;;8.43;3.87;;;10.50;1.00;;;;;;6288683;28;20243;-54
2022/10/02 04:14:32;;;;;;;11.93;4.40;;;10.40;1.00;;;;;;6281963;28;20297;-54
2022/10/02 04:17:43;;;;;;;7.53;4.27;;;10.40;1.00;;;;;;6294027;28;20631;-52
2022/10/02 04:20:49;;;;;;;11.93;4.87;;;10.40;1.00;;;;;;6289852;28;21455;-54
2022/10/02 04:23:56;;;;;;;8.80;5.00;;;10.40;1.00;;;;;;6284185;28;20244;-55
2022/10/02 04:27:05;;;;;;;9.27;4.37;;;10.50;1.00;;;;;;6290514;28;20238;-55
2022/10/02 04:30:11;;;;;;;6.17;4.40;;;10.50;1.00;;;;;;6284980;28;20812;-54
2022/10/02 04:33:18;;;;;;;5.73;4.00;;;10.50;1.00;;;;;;6276654;28;20242;-54
2022/10/02 04:36:37;;;;;;;10.37;4.30;;;10.50;1.00;;;;;;6279386;28;20225;-54
2022/10/02 04:40:00;;;;;;;6.63;4.00;;;10.60;1.00;;;;;;6276437;28;20233;-54
2022/10/02 04:43:22;;;;;;;9.07;4.20;;;10.60;1.00;;;;;;6286839;28;20257;-54
2022/10/02 04:46:44;;;;;;;9.00;4.70;;;10.60;1.00;;;;;;6278425;28;20394;-55
2022/10/02 04:50:10;;;;;;;8.30;4.10;;;10.70;1.00;;;;;;6282497;28;20225;-54
2022/10/02 04:53:23;;;;;;;9.23;4.20;;;10.70;1.00;;;;;;6283727;28;20241;-53
2022/10/02 04:56:51;;;;;;;4.83;4.10;;;10.70;1.00;;;;;;6285634;28;20713;-56
2022/10/02 05:00:05;;;;;;;8.30;4.63;;;10.80;1.00;;;;;;6257054;28;20233;-54
2022/10/02 05:03:25;;;;;;;7.37;4.10;;;10.80;1.00;;;;;;6287817;28;20234;-52
2022/10/02 05:06:45;;;;;;;9.23;4.53;;;10.80;1.00;;;;;;6277246;28;20601;-54
2022/10/02 05:10:00;;;;;;;6.03;3.33;;;10.90;1.00;;;;;;6284646;28;20221;-54
2022/10/02 05:13:15;;;;;;;5.73;3.73;;;11.00;1.00;;;;;;6294323;28;20350;-54
2022/10/02 05:16:35;;;;;;;6.47;3.97;;;11.00;1.00;;;;;;6280742;28;20721;-55
2022/10/02 05:19:57;;;;;;;7.73;3.50;;;11.00;1.00;;;;;;6276510;28;20233;-54
2022/10/02 05:23:19;;;;;;;8.70;4.17;;;11.00;1.00;;;;;;6264749;28;20258;-55
2022/10/02 05:26:35;;;;;;;9.60;3.90;;;11.10;1.00;;;;;;6287158;28;20237;-54
2022/10/02 05:29:56;;;;;;;6.03;3.67;;;11.10;1.00;;;;;;6288182;28;20312;-54
2022/10/02 05:33:16;;;;;;;7.30;4.10;;;11.00;1.00;;;;;;6282709;28;20248;-55
2022/10/02 05:36:48;;;;;;;7.63;3.40;;;11.10;1.00;;;;;;6272636;28;20827;-52
2022/10/02 05:39:58;;;;;;;5.27;3.80;;;11.00;1.00;;;;;;6278118;28;20229;-52
2022/10/02 05:43:06;;;;;;;6.50;3.73;;;11.00;1.00;;;;;;6288241;28;20248;-54
2022/10/02 05:46:14;;;;;;;7.03;3.57;;;11.00;1.00;;;;;;6276993;28;20807;-54
2022/10/02 05:49:21;;;;;;;4.10;3.70;;;11.00;1.00;;;;;;6283638;28;20243;-55
2022/10/02 05:52:29;;;;;;;6.53;4.40;;;11.10;1.00;;;;;;6276334;28;20636;-54
2022/10/02 05:55:37;;;;;;;5.73;3.70;;;11.10;1.00;;;;;;6280761;28;20240;-55
2022/10/02 05:58:50;;;;;;;7.87;4.10;;;11.20;1.00;;;;;;6293583;28;20611;-54
2022/10/02 06:01:55;;;;;;;6.20;3.23;;;11.30;1.00;;;;;;6287140;28;20328;-53
2022/10/02 06:05:05;;;;;;;6.00;3.40;;;11.40;1.00;;;;;;6281698;28;20749;-55
2022/10/02 06:08:13;;;;;;;6.30;3.70;;;11.50;1.00;;;;;;6283989;28;20232;-54
2022/10/02 06:11:22;;;;;;;8.47;3.70;;;11.70;1.00;;;;;;6272726;28;20225;-54
2022/10/02 06:14:30;;;;;;;8.80;4.20;;;11.80;1.00;;;;;;6281426;28;20237;-53
2022/10/02 06:17:38;;;;;;;5.20;3.90;;;11.80;1.00;;;;;;6284011;28;20229;-55
2022/10/02 06:20:46;;;;;;;7.50;3.70;;;11.80;1.00;;;;;;6284895;28;21123;-55
2022/10/02 06:23:53;;;;;;;5.70;3.77;;;11.80;1.00;;;;;;6284693;28;20233;-54
2022/10/02 06:27:02;;;;;;;7.80;4.10;;;11.80;1.00;;;;;;6282123;28;20232;-55
2022/10/02 06:30:06;;;;;;;7.40;4.90;;;11.80;1.00;;;;;;6268957;28;20221;-55
2022/10/02 06:33:15;;;;;;;10.67;4.43;;;11.80;1.00;;;;;;6286345;28;20233;-54
2022/10/02 06:36:38;;;;;;;10.60;5.13;;;11.80;1.00;;;;;;6286583;28;20236;-55
2022/10/02 06:40:01;;;;;;;7.53;4.60;;;11.80;1.00;;;;;;6280796;28;20229;-55
2022/10/02 06:43:13;;;;;;;8.73;4.27;;;11.80;1.00;;;;;;6281275;28;20250;-55
2022/10/02 06:46:32;;;;;;;11.13;4.60;;;11.90;1.00;;;;;;6278735;28;20492;-53
2022/10/02 06:49:50;;;;;;;4.63;4.23;;;11.80;1.00;;;;;;6289380;28;20319;-55
2022/10/02 06:52:59;;;;;;;9.53;4.30;;;11.90;1.00;;;;;;6288342;28;20233;-55
2022/10/02 06:56:14;;;;;;;10.37;4.50;;;11.80;1.00;;;;;;6284837;28;20595;-55
2022/10/02 06:59:35;;;;;;;9.27;5.00;;;11.90;1.00;;;;;;6286841;28;20713;-56
2022/10/02 07:03:01;;;;;;;6.50;4.43;;;11.90;1.00;;;;;;6294100;28;20270;-55
2022/10/02 07:06:13;;;;;;;9.43;5.03;;;12.20;1.00;;;;;;6288333;28;20305;-55
2022/10/02 07:09:55;;;;;;;7.67;4.83;;;12.30;1.00;;;;;;6285282;28;20249;-55
2022/10/02 07:13:24;;;;;;;9.50;5.17;;;12.20;1.00;;;;;;6282394;28;20244;-53
2022/10/02 07:16:42;;;;;;;7.60;5.03;;;12.20;1.00;;;;;;6280633;28;20233;-55
2022/10/02 07:20:02;;;;;;;10.23;5.07;;;12.10;1.00;;;;;;6282968;28;20367;-56
2022/10/02 07:23:33;;;;;;;5.70;5.20;;;12.10;1.00;;;;;;6280893;28;20252;-54
2022/10/02 07:26:52;;;;;;;14.70;6.03;;;12.10;1.00;;;;;;6278854;28;20229;-55
2022/10/02 07:30:00;;;;;;;13.43;5.83;;;12.20;1.00;;;;;;6282022;28;20233;-53
2022/10/02 07:33:14;;;;;;;6.80;5.40;;;12.20;1.00;;;;;;6284257;28;20462;-54
2022/10/02 07:36:29;;;;;;;11.13;5.90;;;12.20;1.00;;;;;;6263420;28;20233;-53
2022/10/02 07:39:45;;;;;;;9.47;5.53;;;12.30;1.00;;;;;;6285394;28;20230;-53
2022/10/02 07:43:05;;;;;;;6.70;5.37;;;12.40;1.00;;;;;;6291778;28;20246;-55
2022/10/02 07:46:15;;;;;;;12.23;6.53;;;12.50;1.00;;;;;;6285274;28;20650;-54
2022/10/02 07:49:38;;;;;;;11.13;6.47;;;12.70;1.00;;;;;;6290686;28;20479;-55
2022/10/02 07:52:47;;;;;;;10.40;6.67;;;12.80;1.00;;;;;;6276820;28;20744;-56
2022/10/02 07:55:53;;;;;;;10.37;5.80;;;13.00;1.00;;;;;;6284147;28;20241;-55
2022/10/02 07:59:04;;;;;;;12.00;6.77;;;13.10;1.00;;;;;;6286436;28;20240;-55
2022/10/02 08:02:23;;;;;;;12.00;5.97;;;13.20;1.00;;;;;;6287106;28;20229;-53
2022/10/02 08:05:31;;;;;;;9.87;6.07;;;13.30;1.00;;;;;;6289947;28;20262;-54
2022/10/02 08:08:39;;;;;;;6.47;5.70;;;13.40;1.00;;;;;;6286285;28;20244;-54
2022/10/02 08:11:46;;;;;;;7.93;5.87;;;13.60;1.00;;;;;;6286014;28;20317;-54
2022/10/02 08:14:54;;;;;;;15.03;6.03;;;13.70;1.00;;;;;;6285537;28;20257;-53
2022/10/02 08:18:00;;;;;;;9.73;6.67;;;13.70;1.00;;;;;;6281262;28;20233;-54
2022/10/02 08:21:26;;;;;;;7.70;5.60;;;13.90;1.00;;;;;;6290806;28;20249;-53
2022/10/02 08:24:36;;;;;;;9.67;5.77;;;14.00;1.00;;;;;;6295337;28;20556;-54
2022/10/02 08:27:50;;;;;;;8.97;5.67;;;14.20;1.00;;;;;;6289155;28;20239;-55
2022/10/02 08:30:53;;;;;;;11.70;6.27;;;14.30;1.00;;;;;;6272857;28;20316;-54
2022/10/02 08:33:57;;;;;;;9.37;5.93;;;14.40;1.00;;;;;;6258108;28;20248;-53
2022/10/02 08:37:18;;;;;;;11.10;5.73;;;14.60;1.00;;;;;;6288599;28;20330;-55
2022/10/02 08:41:03;;;;;;;9.63;5.80;;;14.70;1.00;;;;;;6280596;28;20261;-59
2022/10/02 08:44:39;;;;;;;12.50;6.17;;;14.70;1.00;;;;;;6277840;28;20221;-54
2022/10/02 08:48:16;;;;;;;10.97;6.10;;;14.80;1.00;;;;;;6285397;28;20233;-54
2022/10/02 08:51:49;;;;;;;11.13;5.67;;;14.80;1.00;;;;;;6278494;28;20238;-53
2022/10/02 08:55:31;;;;;;;12.20;5.90;;;14.90;1.00;;;;;;6276544;28;20229;-53
2022/10/02 08:59:22;;;;;;;12.37;6.47;;;15.10;1.00;;;;;;6275065;28;20381;-55
2022/10/02 09:03:26;;;;;;;11.53;5.67;;;15.20;1.00;;;;;;6232963;28;20620;-55
2022/10/02 09:06:59;;;;;;;16.00;5.53;;;15.40;1.00;;;;;;6199782;28;20228;-55
2022/10/02 09:10:44;;;;;;;9.33;5.50;;;15.50;1.00;;;;;;6285524;28;20236;-54
2022/10/02 09:14:17;;;;;;;6.77;5.43;;;15.50;1.00;;;;;;6286327;28;20604;-53
2022/10/02 09:17:44;;;;;;;12.57;5.60;;;15.70;1.00;;;;;;6285733;28;20235;-53
2022/10/02 09:21:09;;;;;;;14.70;6.07;;;15.90;1.00;;;;;;6286256;28;20222;-55
2022/10/02 09:24:48;;;;;;;8.27;5.53;;;15.90;1.00;;;;;;6281665;28;20241;-55
2022/10/02 09:28:24;;;;;;;12.43;5.33;;;15.90;1.00;;;;;;6274983;28;20732;-54
2022/10/02 09:32:09;;;;;;;9.40;5.63;;;15.90;1.00;;;;;;6265021;28;23170;-53
2022/10/02 09:35:50;;;;;;;12.07;5.50;;;15.90;1.00;;;;;;6232902;28;20234;-55
2022/10/02 09:39:28;;;;;;;10.70;5.67;;;15.70;1.00;;;;;;6256615;28;20222;-53
2022/10/02 09:43:03;;;;;;;10.57;5.63;;;15.60;1.00;;;;;;6249698;28;20234;-53
2022/10/02 09:46:43;;;;;;;12.70;5.87;;;15.50;1.00;;;;;;6253343;28;20237;-54
2022/10/02 09:50:14;;;;;;;11.27;5.73;;;15.50;1.00;;;;;;6287568;28;20236;-55
2022/10/02 09:54:00;;;;;;;8.80;5.63;;;15.50;1.00;;;;;;6280011;28;20240;-53
2022/10/02 09:57:43;;;;;;;10.97;5.77;;;15.50;1.00;;;;;;6204583;28;20549;-55
2022/10/02 10:01:24;;;;;;;9.43;5.83;;;15.60;1.00;;;;;;6276529;28;20249;-53
2022/10/02 10:05:09;;;;;;;9.93;4.87;;;15.70;1.00;;;;;;6272977;28;20233;-55
2022/10/02 10:08:43;;;;;;;7.70;4.93;;;15.80;1.00;;;;;;6261357;28;20241;-55
2022/10/02 10:12:13;;;;;;;4.97;4.47;;;16.00;1.00;;;;;;6282736;28;20586;-53
2022/10/02 10:15:49;;;;;;;6.00;4.83;;;15.90;1.00;;;;;;6283639;28;20439;-54
2022/10/02 10:19:49;;;;;;;8.53;4.67;;;15.80;1.00;;;;;;6269135;28;20252;-55
2022/10/02 10:23:06;;;;;;;8.40;4.73;;;15.60;1.00;;;;;;6273163;28;20503;-55
2022/10/02 10:26:37;;;;;;;9.47;4.90;;;15.40;1.00;;;;;;6280732;28;20242;-54
2022/10/02 10:30:12;;;;;;;14.60;5.37;;;15.30;1.00;;;;;;6273597;28;20251;-54
2022/10/02 10:34:06;;;;;;;7.33;4.07;;;15.30;1.00;;;;;;6273689;28;20261;-54
2022/10/02 10:41:02;;;;;;;5.43;4.13;;;15.00;1.00;;;;;;6217032;28;20231;-54
2022/10/02 10:44:37;;;;;;;6.63;3.20;;;15.10;1.00;;;;;;6278155;28;20599;-55
2022/10/02 10:48:13;;;;;;;4.70;3.00;;;15.30;1.00;;;;;;6276229;28;20240;-54
2022/10/02 10:51:31;;;;;;;3.70;3.10;;;15.40;1.00;;;;;;6265480;28;20233;-54
2022/10/02 10:54:54;;;;;;;4.07;3.30;;;15.40;1.00;;;;;;6288133;28;20237;-55
2022/10/02 10:58:14;;;;;;;3.97;3.57;;;15.30;1.00;;;;;;6277231;28;20725;-55
2022/10/02 11:01:19;;;;;;;6.60;3.83;;;15.20;1.00;;;;;;6287959;28;20244;-54
2022/10/02 11:04:44;;;;;;;5.63;4.53;;;15.10;1.00;;;;;;6283829;28;20229;-53
2022/10/02 11:08:06;;;;;;;6.80;4.80;;;15.00;1.00;;;;;;6274969;28;20229;-54
2022/10/02 11:11:19;;;;;;;9.27;4.70;;;15.10;1.00;;;;;;6278305;28;20670;-54
2022/10/02 11:14:33;;;;;;;6.37;5.50;;;15.30;1.00;;;;;;6281364;28;20244;-55
2022/10/02 11:17:56;;;;;;;8.13;5.50;;;15.70;1.00;;;;;;6285912;28;20327;-55
2022/10/02 11:21:27;;;;;;;7.57;4.60;;;15.90;1.00;;;;;;6278338;28;20237;-55
2022/10/02 11:24:47;;;;;;;6.60;4.77;;;16.10;1.00;;;;;;6241249;28;20477;-54
2022/10/02 11:28:34;;;;;;;8.67;5.63;;;16.10;1.00;;;;;;6274224;28;20500;-55
2022/10/02 11:31:58;;;;;;;7.30;5.33;;;15.80;1.00;;;;;;6171415;28;20751;-55
2022/10/02 11:35:22;;;;;;;7.00;4.90;;;15.50;1.00;;;;;;6183970;28;20452;-56
2022/10/02 11:38:48;;;;;;;5.10;4.70;;;15.20;1.00;;;;;;6286666;28;20229;-54
2022/10/02 11:42:20;;;;;;;8.10;5.20;;;14.90;1.00;;;;;;6280225;28;20230;-55
2022/10/02 11:45:42;;;;;;;4.83;4.43;;;14.80;1.00;;;;;;6288672;28;20231;-55
2022/10/02 11:49:19;;;;;;;4.63;4.30;;;14.70;1.00;;;;;;6283005;28;20710;-55
2022/10/02 11:53:10;;;;;;;4.53;3.97;;;14.70;1.00;;;;;;6284294;28;20234;-54
2022/10/02 11:56:28;;;;;;;6.00;3.90;;;15.00;1.00;;;;;;6224175;28;20393;-55
2022/10/02 11:59:52;;;;;;;6.77;3.90;;;15.30;1.00;;;;;;6284510;28;20241;-56
2022/10/02 12:03:00;;;;;;;5.17;4.67;;;15.60;1.00;;;;;;6284707;28;20236;-55
2022/10/02 12:06:16;;;;;;;5.37;4.77;;;15.70;1.00;;;;;;6281711;28;20236;-57
2022/10/02 12:09:29;;;;;;;5.27;4.47;;;15.70;1.00;;;;;;6284697;28;20732;-55
2022/10/02 12:12:43;;;;;;;6.13;4.93;;;15.80;1.00;;;;;;6252202;28;20229;-58
2022/10/02 12:15:55;;;;;;;6.80;5.10;;;16.00;1.00;;;;;;6276960;28;20233;-55
2022/10/02 12:19:15;;;;;;;5.27;4.77;;;16.10;1.00;;;;;;6284732;28;20408;-54
2022/10/02 12:29:27;;;;;;;5.23;4.50;;;16.50;1.00;;;;;;6272491;28;20221;-55
2022/10/02 12:32:52;;;;;;;6.13;4.47;;;16.50;1.00;;;;;;6274620;28;20269;-54
2022/10/02 12:36:25;;;;;;;5.33;4.47;;;16.30;1.00;;;;;;6278163;28;20222;-55
2022/10/02 12:39:43;;;;;;;4.33;3.80;;;16.00;1.00;;;;;;6270408;28;20233;-55
2022/10/02 12:43:18;;;;;;;4.00;3.70;;;15.90;1.00;;;;;;6279791;28;20232;-55
2022/10/02 12:46:39;;;;;;;4.10;3.70;;;15.90;1.00;;;;;;6283519;28;20233;-55
2022/10/02 12:49:54;;;;;;;4.60;3.73;;;15.80;1.00;;;;;;6281875;28;20637;-55
2022/10/02 12:53:37;;;;;;;5.33;3.90;;;15.80;1.00;;;;;;6288872;28;20506;-54
2022/10/02 13:01:07;;;;;;;4.27;3.83;;;15.90;1.00;;;;;;6281966;28;20718;-55
2022/10/02 13:04:40;;;;;;;3.53;3.23;;;16.20;1.00;;;;;;6278929;28;20286;-56
2022/10/02 13:08:17;;;;;;;3.40;3.10;;;16.20;1.00;;;;;;6276467;28;20244;-56
2022/10/02 13:11:33;;;;;;;4.27;3.60;;;16.10;1.00;;;;;;6281693;28;20233;-54
2022/10/02 13:15:07;;;;;;;3.20;2.93;;;16.00;1.00;;;;;;6277928;28;20243;-54
2022/10/02 13:18:28;;;;;;;3.73;3.43;;;15.90;1.00;;;;;;6289080;28;20252;-54
2022/10/02 13:21:41;;;;;;;3.40;3.10;;;16.10;1.00;;;;;;6283138;28;20233;-55
2022/10/02 13:24:57;;;;;;;3.10;2.90;;;16.10;1.00;;;;;;6290464;28;20419;-53
2022/10/02 13:28:12;;;;;;;3.77;3.43;;;16.10;1.00;;;;;;6286348;28;20228;-55
2022/10/02 13:31:26;;;;;;;5.93;3.47;;;16.10;1.00;;;;;;6282867;28;20232;-55
2022/10/02 13:34:53;;;;;;;6.97;3.40;;;16.00;1.00;;;;;;6276724;28;20225;-53
2022/10/02 13:38:09;;;;;;;3.13;2.83;;;16.10;1.00;;;;;;6280488;28;20229;-55
2022/10/02 13:41:22;;;;;;;3.43;2.60;;;16.10;1.00;;;;;;6282907;28;20233;-54
2022/10/02 13:44:35;;;;;;;4.77;2.40;;;16.10;1.00;;;;;;6281458;28;20244;-54
2022/10/02 13:47:43;;;;;;;5.90;3.00;;;16.00;1.00;;;;;;6284101;28;20234;-54
2022/10/02 13:50:52;;;;;;;4.20;2.60;;;15.90;1.00;;;;;;6281348;28;20241;-54
2022/10/02 13:54:14;;;;;;;4.80;3.00;;;15.90;1.00;;;;;;6282912;28;20439;-54
2022/10/02 13:57:38;;;;;;;3.00;2.90;;;15.90;1.00;;;;;;6254947;28;20233;-54
2022/10/02 14:01:04;;;;;;;5.53;3.13;;;15.90;1.00;;;;;;6279454;28;20233;-55
2022/10/02 14:04:29;;;;;;;4.70;2.97;;;16.10;1.00;;;;;;6273315;28;20230;-55
2022/10/02 14:08:01;;;;;;;4.00;3.13;;;16.30;1.00;;;;;;6282426;28;20234;-56
2022/10/02 14:11:14;;;;;;;6.33;3.30;;;16.40;1.00;;;;;;6285728;28;20240;-54
2022/10/02 14:14:27;;;;;;;3.83;3.17;;;16.60;1.00;;;;;;6278251;28;20755;-55
2022/10/02 14:17:37;;;;;;;4.77;3.23;;;16.70;1.00;;;;;;6283593;28;20241;-55
2022/10/02 14:20:49;;;;;;;3.20;2.90;;;16.90;1.00;;;;;;6285664;28;20489;-55
2022/10/02 14:24:06;;;;;;;5.00;3.00;;;16.90;1.00;;;;;;6283779;28;20233;-55
2022/10/02 14:27:18;;;;;;;3.30;2.70;;;17.00;1.00;;;;;;6284662;28;20237;-55
2022/10/02 14:30:22;;;;;;;2.83;2.60;;;17.00;1.00;;;;;;6289634;28;20233;-54
2022/10/02 14:33:42;;;;;;;3.53;2.20;;;16.90;1.00;;;;;;6283461;28;20233;-55
2022/10/02 14:36:58;;;;;;;2.47;2.27;;;16.90;1.00;;;;;;6272741;28;20702;-54
2022/10/02 14:40:10;;;;;;;2.73;2.50;;;16.90;1.00;;;;;;6279216;28;20777;-55
2022/10/02 14:43:34;;;;;;;3.53;2.93;;;16.80;1.00;;;;;;6275051;28;20237;-55
2022/10/02 14:46:52;;;;;;;3.80;2.80;;;16.70;1.00;;;;;;6279426;28;20598;-55
2022/10/02 14:50:06;;;;;;;4.70;2.70;;;16.60;1.00;;;;;;6281125;28;20230;-54
2022/10/02 14:53:26;;;;;;;5.03;2.93;;;16.50;1.00;;;;;;6287092;28;20237;-55
2022/10/02 14:56:44;;;;;;;3.43;2.50;;;16.50;1.00;;;;;;6276869;28;20233;-54
2022/10/02 15:00:01;;;;;;;3.53;2.50;;;16.40;1.00;;;;;;6274772;28;20234;-55
2022/10/02 15:03:30;;;;;;;2.70;2.30;;;16.20;1.00;;;;;;6281919;28;20230;-54
2022/10/02 15:06:47;;;;;;;3.47;3.10;;;16.10;1.00;;;;;;6273432;28;20248;-55
2022/10/02 15:10:02;;;;;;;2.33;2.23;;;16.00;1.00;;;;;;6279165;28;20741;-52
2022/10/02 15:13:10;;;;;;;2.80;2.60;;;15.90;1.00;;;;;;6288396;28;20653;-55
2022/10/02 15:19:43;;;;;;;3.13;2.50;;;15.80;1.00;;;;;;6281652;28;20241;-53
2022/10/02 15:22:57;;;;;;;4.17;2.93;;;15.60;1.00;;;;;;6283366;28;20343;-54
2022/10/02 15:26:18;;;;;;;4.03;2.60;;;15.60;1.00;;;;;;6289708;28;20226;-54
2022/10/02 15:29:29;;;;;;;5.00;3.07;;;15.50;1.00;;;;;;6291682;28;20225;-54
2022/10/02 15:33:16;;;;;;;2.87;2.30;;;15.40;1.00;;;;;;6281536;28;20233;-54
2022/10/02 15:36:36;;;;;;;2.43;2.30;;;15.40;1.00;;;;;;6278153;28;20621;-53
2022/10/02 15:40:04;;;;;;;4.53;2.50;;;15.40;1.00;;;;;;6286930;28;20230;-55
2022/10/02 15:43:35;;;;;;;2.77;2.57;;;15.50;1.00;;;;;;6281446;28;20229;-55
2022/10/02 15:46:52;;;;;;;3.53;2.60;;;15.50;1.00;;;;;;6277863;28;20245;-55
2022/10/02 15:50:11;;;;;;;5.23;2.70;;;15.50;1.00;;;;;;6295527;28;20249;-54
2022/10/02 15:53:31;;;;;;;3.73;2.50;;;15.40;1.00;;;;;;6271172;28;20401;-55
2022/10/02 15:56:51;;;;;;;3.60;2.57;;;15.30;1.00;;;;;;6272286;28;20678;-54
2022/10/02 16:00:13;;;;;;;2.90;2.70;;;15.30;1.00;;;;;;6285309;28;20485;-52
2022/10/02 16:03:22;;;;;;;5.50;2.33;;;15.20;1.00;;;;;;6260313;28;20346;-54
2022/10/02 16:06:39;;;;;;;3.33;3.03;;;15.10;1.00;;;;;;6290749;28;20236;-55
2022/10/02 16:09:53;;;;;;;4.50;2.47;;;15.00;1.00;;;;;;6271915;28;20242;-54
2022/10/02 16:13:25;;;;;;;3.83;3.10;;;14.90;1.00;;;;;;6289677;28;20238;-52
2022/10/02 16:17:04;;;;;;;3.10;2.90;;;14.80;1.00;;;;;;6285750;28;20244;-54
2022/10/02 16:20:27;;;;;;;5.90;3.07;;;14.70;1.00;;;;;;6285920;28;20759;-55
2022/10/02 16:23:50;;;;;;;5.73;3.37;;;14.60;1.00;;;;;;6283567;28;20245;-52
2022/10/02 16:27:28;;;;;;;4.60;3.30;;;14.50;1.00;;;;;;6278952;28;20234;-54
2022/10/02 16:30:38;;;;;;;7.00;3.43;;;14.40;1.00;;;;;;6250690;28;20237;-60
2022/10/02 16:33:55;;;;;;;3.80;2.83;;;14.30;1.00;;;;;;6275330;28;20244;-54
2022/10/02 16:37:02;;;;;;;7.43;3.43;;;14.30;1.00;;;;;;6283356;28;20729;-54
2022/10/02 16:40:21;;;;;;;3.87;3.10;;;14.20;1.00;;;;;;6280821;28;20287;-55
2022/10/02 16:43:52;;;;;;;5.20;3.30;;;14.20;1.00;;;;;;6286232;28;20608;-54
2022/10/02 16:47:01;;;;;;;4.17;3.07;;;14.20;1.00;;;;;;6275826;28;20246;-53
2022/10/02 16:50:16;;;;;;;5.37;3.03;;;14.10;1.00;;;;;;6285184;28;20579;-53
2022/10/02 16:53:25;;;;;;;3.50;3.30;;;14.00;1.00;;;;;;6288633;28;20234;-55
2022/10/02 16:56:33;;;;;;;5.80;3.17;;;14.00;1.00;;;;;;6291295;28;20226;-52
2022/10/02 16:59:44;;;;;;;6.87;3.50;;;14.00;1.00;;;;;;6282939;28;20663;-54
2022/10/02 17:02:52;;;;;;;3.60;3.30;;;13.90;1.00;;;;;;6285083;28;20487;-55
2022/10/02 17:06:03;;;;;;;8.30;3.37;;;13.90;1.00;;;;;;6282649;28;20361;-53
2022/10/02 17:09:13;;;;;;;7.83;3.80;;;13.80;1.00;;;;;;6282114;28;20233;-52
2022/10/02 17:12:21;;;;;;;4.80;3.20;;;13.80;1.00;;;;;;6281581;28;20283;-53
2022/10/02 17:15:34;;;;;;;4.90;3.70;;;13.70;1.00;;;;;;6283658;28;20538;-53
2022/10/02 17:18:43;;;;;;;3.60;3.30;;;13.70;1.00;;;;;;6279481;28;20241;-54
2022/10/02 17:21:53;;;;;;;4.20;3.70;;;13.60;1.00;;;;;;6282434;28;20515;-54
2022/10/02 17:25:06;;;;;;;5.67;4.00;;;13.60;1.00;;;;;;6284962;28;20230;-54
2022/10/02 17:28:20;;;;;;;6.87;3.97;;;13.50;1.00;;;;;;6289561;28;20510;-54
2022/10/02 17:31:33;;;;;;;6.67;4.57;;;13.40;1.00;;;;;;6276426;28;20342;-54
2022/10/02 17:34:46;;;;;;;4.30;3.90;;;13.40;1.00;;;;;;6280279;28;20616;-54
2022/10/02 17:38:11;;;;;;;4.93;3.90;;;13.40;1.00;;;;;;6275628;28;20257;-55